Time;durP1;ratioP1;P1;durP2;ratioP2;P2;SDS_P1;SDS_P2;PMS_P1;PMS_P2;Temp;Humidity;BMP_temperature;BMP_pressure;BME280_temperature;BME280_humidity;BME280_pressure;Samples;Min_cycle;Max_cycle;Signal;HPM_P1;HPM_P2
2021/12/06 00:02:10;;;;;;;7.00;4.55;;;4.60;99.90;;;;;;5033182;28;20026;-64
2021/12/06 00:04:37;;;;;;;10.30;4.75;;;4.60;99.90;;;;;;5032606;28;20036;-59
2021/12/06 00:07:07;;;;;;;9.02;5.40;;;4.50;99.90;;;;;;5033203;28;20094;-57
2021/12/06 00:09:33;;;;;;;10.45;5.50;;;4.50;99.90;;;;;;5032183;28;20029;-62
2021/12/06 00:12:01;;;;;;;8.80;6.13;;;4.50;99.90;;;;;;5033072;28;20029;-61
2021/12/06 00:14:30;;;;;;;9.05;7.10;;;4.50;99.90;;;;;;5033123;28;20108;-67
2021/12/06 00:17:01;;;;;;;8.30;5.53;;;4.50;99.90;;;;;;5032225;28;20022;-54
2021/12/06 00:19:27;;;;;;;;;;;4.40;99.90;;;;;;5031319;28;20053;-63
2021/12/06 00:21:54;;;;;;;9.45;6.07;;;4.40;99.90;;;;;;5031906;28;19978;-64
2021/12/06 00:24:19;;;;;;;8.25;5.75;;;4.40;99.90;;;;;;5032667;28;20048;-58
2021/12/06 00:26:45;;;;;;;9.02;6.63;;;4.30;99.90;;;;;;5031925;28;20111;-61
2021/12/06 00:29:11;;;;;;;9.50;6.45;;;4.30;99.90;;;;;;5032499;28;20079;-61
2021/12/06 00:31:37;;;;;;;8.70;6.40;;;4.30;99.90;;;;;;5030878;28;20107;-56
2021/12/06 00:34:12;;;;;;;10.85;7.00;;;4.20;99.90;;;;;;5033028;28;20057;-60
2021/12/06 00:36:40;;;;;;;9.77;6.85;;;4.30;99.90;;;;;;5030712;28;20387;-57
2021/12/06 00:39:11;;;;;;;9.80;6.90;;;4.30;99.90;;;;;;5030237;28;20160;-57
2021/12/06 00:41:37;;;;;;;13.70;7.55;;;4.40;99.90;;;;;;5030399;28;20048;-55
2021/12/06 00:44:03;;;;;;;11.88;7.45;;;4.30;99.90;;;;;;5032494;28;20391;-57
2021/12/06 00:46:29;;;;;;;12.23;8.35;;;4.40;99.90;;;;;;5047479;28;20029;-58
2021/12/06 00:48:55;;;;;;;11.43;7.30;;;4.30;99.90;;;;;;5031370;28;20383;-62
2021/12/06 00:51:21;;;;;;;11.70;8.15;;;4.30;99.90;;;;;;5032238;28;20517;-66
2021/12/06 00:53:46;;;;;;;10.25;8.00;;;4.40;99.90;;;;;;5030393;28;20057;-67
2021/12/06 00:56:13;;;;;;;11.38;7.43;;;4.40;99.90;;;;;;5032445;28;20025;-60
2021/12/06 00:58:39;;;;;;;10.07;6.72;;;4.40;99.90;;;;;;5031564;28;20040;-63
2021/12/06 01:01:07;;;;;;;10.30;7.60;;;4.40;99.90;;;;;;5032236;28;20026;-67
2021/12/06 01:03:35;;;;;;;11.30;8.20;;;4.40;99.90;;;;;;5030684;28;20026;-61
2021/12/06 01:06:01;;;;;;;9.43;7.40;;;4.40;99.90;;;;;;5031643;28;20017;-63
2021/12/06 01:08:27;;;;;;;9.85;7.47;;;4.50;99.90;;;;;;5031826;28;20429;-56
2021/12/06 01:10:54;;;;;;;11.48;7.68;;;4.60;99.90;;;;;;5031332;28;20384;-59
2021/12/06 01:13:20;;;;;;;9.00;6.78;;;4.60;99.90;;;;;;5031828;28;20034;-63
2021/12/06 01:15:47;;;;;;;9.55;5.70;;;4.60;99.90;;;;;;5031608;28;20055;-58
2021/12/06 01:18:15;;;;;;;10.68;6.82;;;4.60;99.90;;;;;;5029942;28;20053;-63
2021/12/06 01:20:57;;;;;;;8.95;7.15;;;4.60;99.90;;;;;;5031268;28;20133;-61
2021/12/06 01:23:28;;;;;;;10.20;6.78;;;4.50;99.90;;;;;;5031849;28;20053;-60
2021/12/06 01:31:44;;;;;;;8.38;7.47;;;4.40;99.90;;;;;;5031441;28;20026;-62
2021/12/06 01:39:28;;;;;;;7.22;6.20;;;4.60;99.90;;;;;;5030990;28;20064;-58
2021/12/06 01:42:00;;;;;;;10.27;6.90;;;4.60;99.90;;;;;;5030592;28;20022;-56
2021/12/06 01:44:34;;;;;;;14.45;8.32;;;4.70;99.90;;;;;;5031646;28;20429;-56
2021/12/06 01:47:05;;;;;;;11.40;6.97;;;4.70;99.90;;;;;;5031092;28;20036;-61
2021/12/06 01:49:35;;;;;;;11.15;7.38;;;4.60;99.90;;;;;;5029731;28;20439;-61
2021/12/06 01:52:14;;;;;;;11.25;7.22;;;4.50;99.90;;;;;;5029502;28;20490;-58
2021/12/06 01:54:40;;;;;;;10.65;6.38;;;4.50;99.90;;;;;;5030837;28;20052;-66
2021/12/06 01:57:07;;;;;;;9.10;6.88;;;4.40;99.90;;;;;;5031028;28;20463;-56
2021/12/06 01:59:33;;;;;;;12.35;6.55;;;4.40;99.90;;;;;;5029929;28;20064;-55
2021/12/06 02:01:58;;;;;;;8.95;6.47;;;4.50;99.90;;;;;;5030618;28;20182;-59
2021/12/06 02:04:26;;;;;;;10.65;6.95;;;4.60;99.90;;;;;;5031080;28;20121;-63
2021/12/06 02:06:52;;;;;;;8.05;6.32;;;4.60;99.90;;;;;;5045604;28;20091;-54
2021/12/06 02:09:19;;;;;;;9.15;6.32;;;4.50;99.90;;;;;;5030876;28;20347;-63
2021/12/06 02:11:45;;;;;;;8.98;6.55;;;4.60;99.90;;;;;;5030518;28;20033;-55
2021/12/06 02:19:29;;;;;;;10.30;5.22;;;4.70;99.90;;;;;;5030801;28;20077;-55
2021/12/06 02:21:55;;;;;;;10.93;6.20;;;4.80;99.90;;;;;;5030130;28;20033;-58
2021/12/06 02:24:21;;;;;;;6.65;5.40;;;4.80;99.90;;;;;;5030678;28;20033;-62
2021/12/06 02:26:47;;;;;;;9.82;5.90;;;4.60;99.90;;;;;;5045630;28;20451;-61
2021/12/06 02:29:13;;;;;;;8.38;5.85;;;4.60;99.90;;;;;;5030629;28;20030;-60
2021/12/06 02:31:38;;;;;;;9.23;6.38;;;4.60;99.90;;;;;;5030385;28;20064;-62
2021/12/06 02:34:05;;;;;;;7.95;5.88;;;4.50;99.90;;;;;;5030229;28;20026;-63
2021/12/06 02:36:32;;;;;;;10.82;5.65;;;4.60;99.90;;;;;;5029316;28;20434;-56
2021/12/06 02:38:58;;;;;;;7.10;5.50;;;4.60;99.90;;;;;;5029979;28;20037;-65
2021/12/06 02:41:24;;;;;;;8.90;5.45;;;4.70;99.90;;;;;;5034212;28;20030;-61
2021/12/06 02:43:52;;;;;;;8.55;5.85;;;4.60;99.90;;;;;;5032571;28;20026;-64
2021/12/06 02:46:18;;;;;;;8.48;6.30;;;4.60;99.90;;;;;;5033321;28;20029;-61
2021/12/06 02:48:44;;;;;;;8.10;5.93;;;4.70;99.90;;;;;;5033960;28;20140;-59
2021/12/06 02:51:12;;;;;;;10.57;7.18;;;4.70;99.90;;;;;;5034554;28;20136;-56
2021/12/06 02:53:38;;;;;;;8.65;5.55;;;4.80;99.90;;;;;;5033162;28;20089;-61
2021/12/06 02:56:17;;;;;;;6.97;4.97;;;4.80;99.90;;;;;;5033918;28;20116;-64
2021/12/06 02:58:56;;;;;;;7.45;5.78;;;4.80;99.90;;;;;;5034071;28;20113;-65
2021/12/06 03:01:28;;;;;;;8.32;6.60;;;4.70;99.90;;;;;;5034743;28;20068;-54
2021/12/06 03:03:54;;;;;;;10.75;6.38;;;4.80;99.90;;;;;;5034234;28;20083;-62
2021/12/06 03:06:20;;;;;;;7.85;5.88;;;4.80;99.90;;;;;;5034531;28;20026;-55
2021/12/06 03:08:53;;;;;;;9.45;6.85;;;4.80;99.90;;;;;;5033663;28;20040;-54
2021/12/06 03:11:41;;;;;;;8.60;6.70;;;4.80;99.90;;;;;;5034802;28;20032;-56
2021/12/06 03:14:10;;;;;;;9.25;6.80;;;4.90;99.90;;;;;;5033778;28;20018;-64
2021/12/06 03:16:35;;;;;;;12.50;7.32;;;4.90;99.90;;;;;;5034275;28;20026;-55
2021/12/06 03:19:04;;;;;;;7.40;6.55;;;4.80;99.90;;;;;;5033130;28;20060;-62
2021/12/06 03:21:30;;;;;;;7.72;6.10;;;4.90;99.90;;;;;;5032866;28;20371;-67
2021/12/06 03:23:57;;;;;;;11.18;6.15;;;4.90;99.90;;;;;;5033304;28;20030;-58
2021/12/06 03:26:23;;;;;;;7.90;6.13;;;4.70;99.90;;;;;;5033966;28;20029;-58
2021/12/06 03:28:50;;;;;;;10.55;6.32;;;4.70;99.90;;;;;;5032201;28;20041;-68
2021/12/06 03:31:17;;;;;;;7.53;6.03;;;4.60;99.90;;;;;;5034381;28;20038;-56
2021/12/06 03:33:46;;;;;;;7.47;6.47;;;4.60;99.90;;;;;;5033988;28;20021;-62
2021/12/06 03:36:12;;;;;;;11.55;7.05;;;4.60;99.90;;;;;;5034154;28;20035;-65
2021/12/06 03:38:40;;;;;;;10.15;6.30;;;4.50;99.90;;;;;;5033465;28;20386;-56
2021/12/06 03:41:07;;;;;;;9.18;6.68;;;4.50;99.90;;;;;;5033460;28;20354;-65
2021/12/06 03:43:34;;;;;;;9.00;6.60;;;4.50;99.90;;;;;;5033980;28;20022;-59
2021/12/06 03:46:00;;;;;;;8.02;6.38;;;4.40;99.90;;;;;;5033414;28;20021;-67
2021/12/06 03:48:26;;;;;;;9.05;6.43;;;4.40;99.90;;;;;;5033596;28;20038;-66
2021/12/06 03:50:52;;;;;;;12.13;6.53;;;4.50;99.90;;;;;;5032932;28;20029;-60
2021/12/06 03:53:17;;;;;;;9.23;6.38;;;4.50;99.90;;;;;;5033836;28;20087;-59
2021/12/06 03:55:44;;;;;;;9.52;5.85;;;4.50;99.90;;;;;;5033354;28;20022;-66
2021/12/06 03:58:09;;;;;;;7.25;6.43;;;4.50;99.90;;;;;;5032972;28;20116;-55
2021/12/06 04:00:35;;;;;;;8.35;6.25;;;4.50;99.90;;;;;;5033362;28;20152;-62
2021/12/06 04:03:01;;;;;;;10.02;6.20;;;4.60;99.90;;;;;;5032904;28;20033;-63
2021/12/06 04:05:28;;;;;;;15.13;7.53;;;4.60;99.90;;;;;;5032031;28;20116;-68
2021/12/06 04:07:54;;;;;;;9.75;6.97;;;4.60;99.90;;;;;;5032881;28;20108;-66
2021/12/06 04:10:19;;;;;;;11.43;7.10;;;4.40;99.90;;;;;;5033370;28;20065;-64
2021/12/06 04:12:46;;;;;;;11.02;7.25;;;4.30;99.90;;;;;;5033515;28;20053;-56
2021/12/06 04:15:13;;;;;;;8.60;6.80;;;4.40;99.90;;;;;;5033342;28;20138;-67
2021/12/06 04:17:39;;;;;;;8.10;6.57;;;4.40;99.90;;;;;;5032846;28;20080;-60
2021/12/06 04:20:08;;;;;;;8.98;6.68;;;4.40;99.90;;;;;;5031100;28;20496;-62
2021/12/06 04:22:34;;;;;;;10.20;6.85;;;4.40;99.90;;;;;;5032638;28;20451;-58
2021/12/06 04:25:02;;;;;;;10.30;7.03;;;4.40;99.90;;;;;;5032512;28;20083;-62
2021/12/06 04:27:29;;;;;;;11.88;8.00;;;4.50;99.90;;;;;;5033315;28;20029;-57
2021/12/06 04:29:55;;;;;;;10.38;7.53;;;4.60;99.90;;;;;;5032647;28;20055;-62
2021/12/06 04:32:22;;;;;;;10.70;6.97;;;4.60;99.90;;;;;;5032802;28;20112;-58
2021/12/06 04:34:48;;;;;;;9.55;7.10;;;4.70;99.90;;;;;;5032847;28;20053;-80
2021/12/06 04:37:14;;;;;;;10.48;6.70;;;4.70;99.90;;;;;;5031576;28;20029;-56
2021/12/06 04:39:42;;;;;;;11.13;7.05;;;4.80;99.90;;;;;;5032873;28;20561;-64
2021/12/06 04:42:08;;;;;;;9.32;6.53;;;4.70;99.90;;;;;;5032601;28;20026;-63
2021/12/06 04:44:34;;;;;;;9.98;7.00;;;4.70;99.90;;;;;;5032696;28;20128;-65
2021/12/06 04:47:01;;;;;;;8.77;6.57;;;4.80;99.90;;;;;;5030879;28;20090;-62
2021/12/06 04:49:29;;;;;;;10.45;6.47;;;4.60;99.90;;;;;;5031006;28;20498;-66
2021/12/06 04:51:57;;;;;;;9.10;6.85;;;4.70;99.90;;;;;;5030853;28;20029;-65
2021/12/06 04:54:28;;;;;;;10.98;7.28;;;4.60;99.90;;;;;;5032880;28;20033;-55
2021/12/06 04:57:22;;;;;;;8.30;6.35;;;4.60;99.90;;;;;;5030700;28;20112;-61
2021/12/06 04:59:56;;;;;;;8.00;6.25;;;4.70;99.90;;;;;;5030387;28;20053;-64
2021/12/06 05:02:32;;;;;;;10.10;7.00;;;4.70;99.90;;;;;;5031692;28;20498;-67
2021/12/06 05:05:01;;;;;;;7.80;6.03;;;4.70;99.90;;;;;;5030632;28;20029;-60
2021/12/06 05:07:34;;;;;;;10.02;7.15;;;4.70;99.90;;;;;;5030634;28;20108;-65
2021/12/06 05:10:01;;;;;;;8.43;6.47;;;4.50;99.90;;;;;;5031218;28;20040;-59
2021/12/06 05:12:29;;;;;;;8.82;6.65;;;4.50;99.90;;;;;;5032252;28;20120;-59
2021/12/06 05:14:56;;;;;;;11.02;7.55;;;4.60;99.90;;;;;;5031700;28;20021;-56
2021/12/06 05:17:22;;;;;;;8.98;7.53;;;4.50;99.90;;;;;;5030935;28;20467;-59
2021/12/06 05:19:48;;;;;;;9.30;6.63;;;4.70;99.90;;;;;;5031802;28;20073;-64
2021/12/06 05:22:15;;;;;;;8.48;6.80;;;4.70;99.90;;;;;;5029396;28;20087;-62
2021/12/06 05:24:41;;;;;;;10.68;7.47;;;4.70;99.90;;;;;;5030811;28;20158;-61
2021/12/06 05:27:07;;;;;;;9.30;7.05;;;4.80;99.90;;;;;;5030387;28;20025;-62
2021/12/06 05:29:34;;;;;;;12.07;7.30;;;4.60;99.90;;;;;;5031224;28;20393;-61
2021/12/06 05:32:02;;;;;;;9.82;7.32;;;4.20;99.90;;;;;;5031636;28;20040;-60
2021/12/06 05:34:37;;;;;;;9.15;7.05;;;4.20;99.90;;;;;;5031858;28;20021;-59
2021/12/06 05:37:04;;;;;;;8.30;6.90;;;4.10;99.90;;;;;;5031524;28;20033;-62
2021/12/06 05:39:30;;;;;;;10.80;7.32;;;4.00;99.90;;;;;;5031819;28;20029;-56
2021/12/06 05:42:02;;;;;;;13.55;8.43;;;4.10;99.90;;;;;;5031215;28;20379;-61
2021/12/06 05:44:28;;;;;;;;;;;4.20;99.90;;;;;;5030706;28;20422;-59
2021/12/06 05:46:54;;;;;;;9.18;7.25;;;4.30;99.90;;;;;;5031060;28;19908;-61
2021/12/06 05:49:22;;;;;;;11.88;6.78;;;4.30;99.90;;;;;;5031194;28;20033;-61
2021/12/06 05:51:47;;;;;;;10.35;6.18;;;4.40;99.90;;;;;;5031660;28;20026;-61
2021/12/06 05:54:13;;;;;;;10.23;6.65;;;4.30;99.90;;;;;;5030842;28;20451;-59
2021/12/06 05:56:39;;;;;;;9.85;6.85;;;4.30;99.90;;;;;;5030014;28;20428;-64
2021/12/06 05:59:05;;;;;;;9.13;7.07;;;4.40;99.90;;;;;;5030413;28;20034;-59
2021/12/06 06:01:30;;;;;;;9.30;6.80;;;4.50;99.90;;;;;;5030771;28;20471;-60
2021/12/06 06:04:01;;;;;;;10.23;6.82;;;4.40;99.90;;;;;;5030543;28;20031;-61
2021/12/06 06:06:29;;;;;;;10.27;6.95;;;4.40;99.90;;;;;;5029881;28;20466;-61
2021/12/06 06:08:55;;;;;;;8.00;6.25;;;4.40;99.90;;;;;;5028989;28;20029;-63
2021/12/06 06:11:21;;;;;;;11.80;7.28;;;4.40;99.90;;;;;;5030653;28;20119;-61
2021/12/06 06:13:46;;;;;;;9.88;7.00;;;4.50;99.90;;;;;;5030883;28;20469;-61
2021/12/06 06:16:17;;;;;;;9.60;7.68;;;4.40;99.90;;;;;;5029866;28;20021;-61
2021/12/06 06:18:43;;;;;;;9.60;7.40;;;4.50;99.90;;;;;;5029196;28;20064;-59
2021/12/06 06:21:08;;;;;;;9.55;7.28;;;4.40;99.90;;;;;;5029039;28;20112;-60
2021/12/06 06:23:34;;;;;;;9.10;6.63;;;4.40;99.90;;;;;;5031031;28;20034;-61
2021/12/06 06:26:00;;;;;;;11.70;6.57;;;4.40;99.90;;;;;;5029741;28;20025;-61
2021/12/06 06:28:26;;;;;;;10.13;7.68;;;4.50;99.90;;;;;;5030853;28;20030;-55
2021/12/06 06:30:51;;;;;;;10.38;7.00;;;4.40;99.90;;;;;;5030580;28;20026;-64
2021/12/06 06:33:17;;;;;;;11.45;7.93;;;4.30;99.90;;;;;;5029071;28;20022;-62
2021/12/06 06:35:43;;;;;;;10.07;7.28;;;4.20;99.90;;;;;;5030713;28;20049;-62
2021/12/06 06:38:08;;;;;;;9.98;6.78;;;4.30;99.90;;;;;;5030146;28;20030;-64
2021/12/06 06:40:34;;;;;;;12.23;7.65;;;4.30;99.90;;;;;;5030841;28;20046;-61
2021/12/06 06:43:00;;;;;;;9.93;7.40;;;4.20;99.90;;;;;;5029449;28;20068;-64
2021/12/06 06:45:26;;;;;;;10.23;7.15;;;4.10;99.90;;;;;;5030101;28;20080;-62
2021/12/06 06:47:52;;;;;;;18.75;7.90;;;4.00;99.90;;;;;;5029997;28;20026;-63
2021/12/06 06:50:19;;;;;;;10.52;7.72;;;3.90;99.90;;;;;;5029861;28;20108;-63
2021/12/06 06:52:46;;;;;;;13.05;9.00;;;3.90;99.90;;;;;;5028265;28;20025;-61
2021/12/06 06:55:13;;;;;;;11.98;7.60;;;3.80;99.90;;;;;;5028212;28;20025;-61
2021/12/06 06:57:40;;;;;;;11.40;7.88;;;3.80;99.90;;;;;;5030562;28;20036;-61
2021/12/06 07:00:11;;;;;;;10.82;8.52;;;3.90;99.90;;;;;;5029419;28;20061;-63
2021/12/06 07:02:37;;;;;;;;;;;3.90;99.90;;;;;;5029089;28;20045;-60
2021/12/06 07:05:04;;;;;;;11.90;7.57;;;3.90;99.90;;;;;;5029998;28;19911;-61
2021/12/06 07:07:29;;;;;;;13.90;7.68;;;3.90;99.90;;;;;;5030109;28;20051;-62
2021/12/06 07:09:55;;;;;;;11.40;7.95;;;4.00;99.90;;;;;;5030294;28;20482;-65
2021/12/06 07:12:20;;;;;;;15.82;8.50;;;3.80;99.90;;;;;;5028273;28;20104;-60
2021/12/06 07:14:47;;;;;;;12.30;7.97;;;3.90;99.90;;;;;;5029628;28;20108;-58
2021/12/06 07:17:13;;;;;;;13.43;7.55;;;3.80;99.90;;;;;;5028048;28;20067;-60
2021/12/06 07:19:39;;;;;;;17.27;9.10;;;3.80;99.90;;;;;;5028108;28;20054;-60
2021/12/06 07:22:05;;;;;;;13.95;8.93;;;3.80;99.90;;;;;;5029622;28;20021;-61
2021/12/06 07:24:31;;;;;;;10.02;7.57;;;3.80;99.90;;;;;;5029582;28;20030;-59
2021/12/06 07:26:58;;;;;;;19.55;8.77;;;3.90;99.90;;;;;;5032050;28;20064;-61
2021/12/06 07:29:24;;;;;;;19.27;9.20;;;4.00;99.90;;;;;;5033625;28;20048;-61
2021/12/06 07:31:50;;;;;;;13.95;8.27;;;4.00;99.90;;;;;;5033080;28;20040;-61
2021/12/06 07:34:16;;;;;;;12.98;7.93;;;4.10;99.90;;;;;;5031242;28;20044;-58
2021/12/06 07:36:42;;;;;;;13.15;8.23;;;3.90;99.90;;;;;;5032031;28;20021;-57
2021/12/06 07:39:08;;;;;;;15.50;8.77;;;3.80;99.90;;;;;;5031461;28;20382;-59
2021/12/06 07:41:33;;;;;;;16.67;8.27;;;3.90;99.90;;;;;;5033627;28;20056;-62
2021/12/06 07:44:00;;;;;;;15.20;8.77;;;4.00;99.90;;;;;;5032621;28;20037;-79
2021/12/06 07:46:26;;;;;;;13.73;8.18;;;3.90;99.90;;;;;;5033492;28;20072;-60
2021/12/06 07:48:53;;;;;;;17.23;8.60;;;4.10;99.90;;;;;;5031841;28;20042;-61
2021/12/06 07:51:26;;;;;;;16.08;9.75;;;4.10;99.90;;;;;;5032711;28;20104;-56
2021/12/06 07:53:53;;;;;;;11.98;8.68;;;4.20;99.90;;;;;;5033314;28;20104;-61
2021/12/06 07:56:20;;;;;;;18.10;8.65;;;4.20;99.90;;;;;;5032476;28;20363;-62
2021/12/06 07:58:46;;;;;;;12.43;9.25;;;4.10;99.90;;;;;;5031385;28;20037;-61
2021/12/06 08:01:13;;;;;;;14.15;9.20;;;4.20;99.90;;;;;;5032637;28;20022;-59
2021/12/06 08:03:40;;;;;;;20.45;9.48;;;4.20;99.90;;;;;;5032755;28;20447;-57
2021/12/06 08:06:08;;;;;;;14.20;8.82;;;4.20;99.90;;;;;;5031049;28;20095;-63
2021/12/06 08:08:35;;;;;;;16.38;9.50;;;4.20;99.90;;;;;;5031918;28;20056;-65
2021/12/06 08:11:10;;;;;;;14.35;10.73;;;4.10;99.90;;;;;;5032764;28;20037;-69
2021/12/06 08:13:38;;;;;;;14.25;10.05;;;4.00;99.90;;;;;;5033009;28;20033;-59
2021/12/06 08:16:09;;;;;;;16.83;9.30;;;4.10;99.90;;;;;;5031979;28;20492;-58
2021/12/06 08:18:35;;;;;;;13.52;8.13;;;4.10;99.90;;;;;;5032555;28;20064;-63
2021/12/06 08:21:04;;;;;;;17.42;9.40;;;4.20;99.90;;;;;;5033043;28;20055;-78
2021/12/06 08:23:31;;;;;;;13.75;8.68;;;4.10;99.90;;;;;;5015152;28;20395;-61
2021/12/06 08:25:58;;;;;;;15.02;8.63;;;4.00;99.90;;;;;;5031214;28;20037;-61
2021/12/06 08:28:24;;;;;;;19.67;9.18;;;4.00;99.90;;;;;;5030554;28;20047;-62
2021/12/06 08:30:52;;;;;;;20.40;9.65;;;4.20;99.90;;;;;;5032400;28;20107;-63
2021/12/06 08:33:19;;;;;;;15.48;8.82;;;4.30;99.90;;;;;;5031970;28;20108;-63
2021/12/06 08:35:48;;;;;;;14.40;9.65;;;4.10;99.90;;;;;;5032704;28;20108;-69
2021/12/06 08:38:15;;;;;;;14.52;9.70;;;4.10;99.90;;;;;;5031697;28;20032;-62
2021/12/06 08:40:43;;;;;;;17.88;9.10;;;4.20;99.90;;;;;;5032144;28;20026;-62
2021/12/06 08:43:16;;;;;;;23.80;9.20;;;4.30;99.90;;;;;;5031823;28;20053;-62
2021/12/06 08:45:48;;;;;;;16.25;9.40;;;4.50;99.90;;;;;;5031019;28;20474;-56
2021/12/06 08:48:14;;;;;;;15.52;10.65;;;4.50;99.90;;;;;;5030354;28;20132;-61
2021/12/06 08:50:39;;;;;;;14.90;8.43;;;4.50;99.90;;;;;;5031218;28;20121;-63
2021/12/06 08:53:05;;;;;;;13.07;8.50;;;4.80;99.90;;;;;;5031907;28;20056;-65
2021/12/06 08:55:31;;;;;;;15.25;9.20;;;4.90;99.90;;;;;;5031698;28;20033;-61
2021/12/06 08:57:57;;;;;;;19.42;9.13;;;4.90;99.90;;;;;;5032114;28;20037;-60
2021/12/06 09:00:27;;;;;;;18.80;11.00;;;4.80;99.90;;;;;;5031317;28;20212;-67
2021/12/06 09:02:53;;;;;;;10.13;8.23;;;4.70;99.90;;;;;;5030772;28;20102;-61
2021/12/06 09:05:19;;;;;;;14.30;8.95;;;4.90;99.90;;;;;;5030186;28;20021;-61
2021/12/06 09:07:45;;;;;;;12.77;8.82;;;5.00;99.90;;;;;;5030515;28;20073;-68
2021/12/06 09:10:12;;;;;;;14.05;8.43;;;5.00;99.90;;;;;;5029581;28;20033;-64
2021/12/06 09:12:40;;;;;;;20.95;8.68;;;5.10;99.90;;;;;;5031811;28;20025;-58
2021/12/06 09:15:13;;;;;;;14.25;8.60;;;5.40;99.90;;;;;;5029971;28;20386;-66
2021/12/06 09:17:39;;;;;;;16.73;9.27;;;5.60;99.90;;;;;;5030103;28;20036;-60
2021/12/06 09:20:08;;;;;;;12.07;8.23;;;5.90;99.90;;;;;;5031494;28;20390;-77
2021/12/06 09:22:34;;;;;;;19.45;8.70;;;6.40;99.90;;;;;;5029597;28;20355;-61
2021/12/06 09:25:00;;;;;;;12.75;7.57;;;7.10;99.90;;;;;;5031698;28;20086;-60
2021/12/06 09:27:26;;;;;;;14.80;9.18;;;8.00;99.90;;;;;;5030728;28;20032;-56
2021/12/06 09:29:55;;;;;;;17.02;8.77;;;9.00;99.90;;;;;;5030168;28;20124;-61
2021/12/06 09:32:21;;;;;;;9.63;7.28;;;;;;;;;;5029464;28;20029;-60
2021/12/06 09:34:47;;;;;;;15.88;8.32;;;10.80;99.90;;;;;;5031971;28;20053;-64
2021/12/06 09:37:14;;;;;;;13.82;7.55;;;11.60;99.90;;;;;;5030783;28;20064;-62
2021/12/06 09:39:39;;;;;;;14.82;7.60;;;11.40;99.90;;;;;;5030950;28;20175;-61
2021/12/06 09:42:07;;;;;;;13.07;7.70;;;12.10;99.90;;;;;;5031077;28;20025;-62
2021/12/06 09:44:33;;;;;;;13.60;7.18;;;12.10;97.90;;;;;;5030074;28;20564;-61
2021/12/06 09:46:59;;;;;;;9.55;7.35;;;13.10;97.70;;;;;;5031005;28;20109;-61
2021/12/06 09:49:25;;;;;;;9.63;6.72;;;13.80;96.60;;;;;;5030075;28;20445;-62
2021/12/06 09:51:54;;;;;;;10.88;7.75;;;14.30;94.40;;;;;;5031194;28;20022;-63
2021/12/06 09:54:29;;;;;;;9.25;7.03;;;14.40;93.80;;;;;;5029618;28;20029;-61
2021/12/06 09:56:56;;;;;;;17.02;7.80;;;14.70;94.00;;;;;;5031131;28;20017;-62
2021/12/06 09:59:26;;;;;;;16.65;8.13;;;15.10;93.30;;;;;;5030850;28;20029;-62
2021/12/06 10:01:59;;;;;;;10.18;6.90;;;14.60;92.00;;;;;;5029614;28;20375;-62
2021/12/06 10:04:28;;;;;;;10.93;6.88;;;15.10;91.10;;;;;;5030593;28;20017;-62
2021/12/06 10:06:55;;;;;;;8.45;6.18;;;15.00;91.90;;;;;;5029128;28;20029;-62
2021/12/06 10:09:22;;;;;;;12.85;6.88;;;15.20;89.60;;;;;;5031021;28;20112;-65
2021/12/06 10:11:48;;;;;;;18.60;7.95;;;15.20;90.50;;;;;;5013685;28;20458;-62
2021/12/06 10:14:15;;;;;;;17.42;7.25;;;14.70;90.70;;;;;;5029617;28;20029;-62
2021/12/06 10:16:41;;;;;;;14.27;6.72;;;13.80;91.20;;;;;;5026901;28;20101;-61
2021/12/06 10:19:08;;;;;;;11.05;7.32;;;12.70;93.20;;;;;;5027507;28;20053;-79
2021/12/06 10:21:35;;;;;;;15.02;9.18;;;12.20;93.90;;;;;;5026907;28;20029;-62
2021/12/06 10:24:01;;;;;;;11.68;7.10;;;13.10;94.10;;;;;;5018304;28;20048;-63
2021/12/06 10:26:30;;;;;;;12.07;7.43;;;12.60;94.00;;;;;;5022079;28;20029;-62
2021/12/06 10:29:04;;;;;;;19.10;7.40;;;12.00;94.70;;;;;;5030870;28;20029;-62
2021/12/06 10:31:32;;;;;;;13.40;7.75;;;11.80;95.30;;;;;;5028996;28;20056;-60
2021/12/06 10:33:58;;;;;;;12.27;7.65;;;11.90;95.50;;;;;;5026758;28;20021;-61
2021/12/06 10:36:25;;;;;;;34.47;9.38;;;11.40;96.40;;;;;;5018868;28;20041;-63
2021/12/06 10:38:54;;;;;;;12.27;8.68;;;10.90;97.30;;;;;;5029593;28;20036;-66
2021/12/06 10:41:25;;;;;;;9.63;8.10;;;10.20;99.30;;;;;;5027350;28;20099;-62
2021/12/06 10:43:57;;;;;;;11.25;7.57;;;10.40;99.90;;;;;;5027964;28;20021;-62
2021/12/06 10:46:25;;;;;;;11.73;7.95;;;10.10;99.90;;;;;;5029578;28;20037;-62
2021/12/06 10:48:57;;;;;;;10.45;8.32;;;10.10;99.90;;;;;;5029150;28;20092;-62
2021/12/06 10:51:23;;;;;;;;;;;10.20;99.90;;;;;;5026679;28;20368;-61
2021/12/06 10:54:04;;;;;;;13.45;8.55;;;9.70;99.90;;;;;;5019546;28;20411;-63
2021/12/06 10:56:55;;;;;;;14.40;8.65;;;9.20;99.90;;;;;;5026736;28;20493;-61
2021/12/06 10:59:25;;;;;;;10.85;8.70;;;9.10;99.90;;;;;;5025499;28;20091;-62
2021/12/06 11:01:53;;;;;;;13.60;8.52;;;8.80;99.90;;;;;;5030165;28;20339;-62
2021/12/06 11:04:22;;;;;;;13.35;8.75;;;8.60;99.90;;;;;;5033152;28;20101;-63
2021/12/06 11:06:52;;;;;;;17.40;9.50;;;8.60;99.90;;;;;;5031668;28;20143;-62
2021/12/06 11:09:25;;;;;;;15.45;10.25;;;8.40;99.90;;;;;;5025795;28;20036;-68
2021/12/06 11:11:54;;;;;;;15.20;9.68;;;8.30;99.90;;;;;;5031361;28;20485;-61
2021/12/06 11:14:27;;;;;;;13.80;9.80;;;8.40;99.90;;;;;;5031273;28;20033;-62
2021/12/06 11:16:56;;;;;;;11.63;9.52;;;8.30;99.90;;;;;;5032939;28;20378;-62
2021/12/06 11:19:23;;;;;;;10.38;8.35;;;8.60;99.90;;;;;;5029317;28;20053;-62
2021/12/06 11:21:52;;;;;;;14.60;9.30;;;9.00;99.90;;;;;;5031930;28;20060;-62
2021/12/06 11:24:41;;;;;;;12.05;9.05;;;9.10;99.90;;;;;;5031490;28;20057;-62
2021/12/06 11:27:21;;;;;;;12.82;9.43;;;9.70;99.90;;;;;;5034290;28;20079;-60
2021/12/06 11:29:57;;;;;;;11.80;9.43;;;10.40;99.90;;;;;;5033323;28;20399;-62
2021/12/06 11:32:45;;;;;;;14.57;9.05;;;11.80;99.90;;;;;;5032963;28;20033;-62
2021/12/06 11:35:14;;;;;;;10.48;8.32;;;12.40;99.40;;;;;;5031306;28;20097;-62
2021/12/06 11:37:43;;;;;;;12.32;9.23;;;12.40;97.90;;;;;;5031211;28;20478;-62
2021/12/06 11:40:21;;;;;;;13.05;9.75;;;12.40;97.90;;;;;;5030061;28;20037;-73
2021/12/06 11:42:52;;;;;;;10.13;8.32;;;11.60;98.70;;;;;;5031769;28;20374;-61
2021/12/06 11:45:34;;;;;;;10.90;9.02;;;12.40;98.70;;;;;;5032961;28;20079;-61
2021/12/06 11:48:10;;;;;;;13.13;10.25;;;12.70;97.40;;;;;;5033670;28;20030;-62
2021/12/06 11:50:41;;;;;;;11.93;10.45;;;12.50;97.90;;;;;;5033502;28;20021;-63
2021/12/06 11:53:07;;;;;;;;;;;12.50;97.30;;;;;;5031056;28;20032;-62
2021/12/06 11:55:34;;;;;;;16.75;10.73;;;12.30;97.50;;;;;;5032136;28;20422;-62
2021/12/06 11:58:00;;;;;;;13.65;10.00;;;12.00;97.70;;;;;;5034020;28;20467;-61
2021/12/06 12:00:27;;;;;;;17.77;11.00;;;11.10;99.00;;;;;;5033233;28;20037;-63
2021/12/06 12:02:55;;;;;;;19.20;12.02;;;10.60;99.90;;;;;;5031979;28;20025;-62
2021/12/06 12:05:38;;;;;;;17.10;10.95;;;10.10;99.90;;;;;;5031811;28;20485;-61
2021/12/06 12:08:11;;;;;;;16.05;10.88;;;10.00;99.90;;;;;;5029638;28;20025;-63
2021/12/06 12:10:44;;;;;;;16.38;11.90;;;9.90;99.90;;;;;;5032503;28;20029;-69
2021/12/06 12:13:23;;;;;;;14.80;11.25;;;9.50;99.90;;;;;;5030512;28;20026;-81
2021/12/06 12:15:49;;;;;;;14.40;11.25;;;9.50;99.90;;;;;;5029698;28;20025;-62
2021/12/06 12:18:14;;;;;;;13.07;10.63;;;9.20;99.90;;;;;;5029649;28;20056;-63
2021/12/06 12:20:40;;;;;;;12.73;10.23;;;9.00;99.90;;;;;;5031913;28;20025;-63
2021/12/06 12:23:09;;;;;;;17.60;11.35;;;9.00;99.90;;;;;;5030399;28;20026;-62
2021/12/06 12:25:48;;;;;;;14.25;9.88;;;9.00;99.90;;;;;;5030879;28;20048;-63
2021/12/06 12:28:21;;;;;;;14.38;10.23;;;9.00;99.90;;;;;;5029374;28;20042;-62
2021/12/06 12:30:49;;;;;;;14.63;10.05;;;8.60;99.90;;;;;;5031514;28;20021;-57
2021/12/06 12:33:19;;;;;;;21.10;10.80;;;8.10;99.90;;;;;;5031688;28;20055;-63
2021/12/06 12:35:51;;;;;;;51.33;11.27;;;8.00;99.90;;;;;;5045293;28;20114;-64
2021/12/06 12:38:24;;;;;;;14.63;9.30;;;8.00;99.90;;;;;;5030684;28;20063;-62
2021/12/06 12:40:56;;;;;;;14.88;9.65;;;7.90;99.90;;;;;;5025631;28;20491;-63
2021/12/06 12:43:25;;;;;;;15.85;10.38;;;7.90;99.90;;;;;;5018280;28;20025;-62
2021/12/06 12:45:56;;;;;;;16.02;10.48;;;7.60;99.90;;;;;;5023919;28;20049;-62
2021/12/06 12:48:25;;;;;;;17.70;10.98;;;7.40;99.90;;;;;;5021357;28;20470;-61
2021/12/06 12:51:08;;;;;;;11.25;8.18;;;7.40;99.90;;;;;;5024659;28;20475;-62
2021/12/06 12:53:55;;;;;;;13.02;7.57;;;7.40;99.90;;;;;;5022354;28;20025;-63
2021/12/06 12:56:24;;;;;;;10.45;8.05;;;7.50;99.90;;;;;;5018862;28;20042;-64
2021/12/06 12:58:51;;;;;;;11.95;7.35;;;7.90;99.90;;;;;;5016995;28;20332;-62
2021/12/06 13:01:18;;;;;;;10.13;7.53;;;8.30;99.90;;;;;;5024502;28;20037;-61
2021/12/06 13:04:01;;;;;;;12.15;8.65;;;8.50;99.90;;;;;;5022835;28;20045;-62
2021/12/06 13:06:38;;;;;;;12.02;8.43;;;8.50;99.90;;;;;;5018031;28;20045;-61
2021/12/06 13:09:29;;;;;;;14.38;8.75;;;8.50;99.90;;;;;;5018585;28;20099;-62
2021/12/06 13:12:01;;;;;;;12.15;7.90;;;8.80;99.90;;;;;;5014469;28;20042;-63
2021/12/06 13:14:41;;;;;;;12.13;8.20;;;8.80;99.90;;;;;;5010914;28;20517;-62